Hillsboro Beach, FL

10:55 AM EDT on August 27, 2014 (GMT -0400)
Cypress Lake Estates 908 Club | Change Station
CLOSE
Current Station
Personal Weather Station
Location: Pompano Beach, FL
Elevation: 10 ft
Nearby Weather Stations
Active Advisory: Coastal Hazard Statement

Elev 10 ft 26.22 °N, 80.11 °W | Updated 5 seconds ago

Clear
Clear
89.2 °F
Feels Like 100 °F
N
3.0
Wind Variable Wind from NE
Gusts 6.0 mph

Today
High -- | Low -- °F
--% Chance of Precip.
Yesterday
High -- | Low -- °F
Precip. -- in
6:58 AM 7:45 PM
Waxing Crescent, 4% visible
Pressure 29.96 in
Visibility 10.0 miles
Clouds Clear
Heat Index 100 °F
Dew Point 75 °F
Humidity 64%
Rainfall 0.00 in
Snow Depth Not available.
UV 6 out of 12
Pollen 5.40 out of 12
Ozone Good
Flu Activity Not available.
METAR KPMP 271353Z 04007KT 10SM CLR 31/21 A2995 RMK AO2 SLP144 T03060211 $

More Conditions Fewer Conditions

Pressure 29.96 in
Visibility 10.0 miles
Clouds Clear
Heat Index 100 °F
Dew Point 75 °F
Humidity 64%
Rainfall 0.00 in
Snow Depth Not available.
UV 6 out of 12
Pollen 5.40 out of 12
Ozone Good
Flu Activity Not available.
METAR KPMP 271353Z 04007KT 10SM CLR 31/21 A2995 RMK AO2 SLP144 T03060211 $

More Conditions Fewer Conditions

10-Day Weather Forecast

Almanac

Astronomy

Aug. 27, 2014 Rise Set
Actual Time 6:58 AM EDT 7:45 PM EDT
Civil Twilight 6:34 AM EDT 8:08 PM EDT
Nautical Twilight 6:06 AM EDT 8:36 PM EDT
Astronomical Twilight 5:38 AM EDT 9:04 PM EDT
Moon 8:37 AM EDT 8:54 PM EDT
Length of Visible Light 13h 34m
Length of Day
12h 46m
Tomorrow will be 1m 27s shorter.
Waxing Crescent, 4% of the Moon is Illuminated
Today
Waxing Crescent
Sep 2
First Quarter
Sep 8
Full
Sep 15
Last Quarter
Sep 24
New

Today's Extremes

State Highs State Lows

Community

WunderPhotos

Upload Photos

1,747,701 photos uploaded!

Nearby

Air Quality

  Air Quality AQ Index Pollutant
Yesterday Good
OZONE
Current Good
OZONE
Wednesday Good
OZONE

Snow Depth

Station Depth Elevation
No new snow has been reported.

Earthquake Activity

City Distance Mag. Time & Date
No recent earthquake activity has been reported nearby.
Minimum magnitude displayed is 2.5.

Coastal Water Temperatures

Place Temperature
Virginia Key, FL 86.0 °F

Nearby Weather Stations